sensor_id;sensor_type;location;lat;lon;timestamp;P1;durP1;ratioP1;P2;durP2;ratioP2
12800;SDS011;6464;42.494;27.470;2024-03-25T05:08:10;0.00;;;0.00;;
12800;SDS011;6464;42.494;27.470;2024-03-25T06:55:15;1.83;;;1.83;;
12800;SDS011;6464;42.494;27.470;2024-03-25T07:00:46;1.90;;;1.90;;
12800;SDS011;6464;42.494;27.470;2024-03-25T07:29:58;1.10;;;1.10;;
12800;SDS011;6464;42.494;27.470;2024-03-25T07:32:33;1.50;;;1.50;;
12800;SDS011;6464;42.494;27.470;2024-03-25T07:37:36;0.83;;;0.83;;
12800;SDS011;6464;42.494;27.470;2024-03-25T07:40:27;1.00;;;1.00;;
12800;SDS011;6464;42.494;27.470;2024-03-25T07:42:54;0.80;;;0.80;;
12800;SDS011;6464;42.494;27.470;2024-03-25T07:45:22;0.40;;;0.40;;
12800;SDS011;6464;42.494;27.470;2024-03-25T07:47:49;0.40;;;0.40;;
12800;SDS011;6464;42.494;27.470;2024-03-25T07:50:16;0.50;;;0.50;;
12800;SDS011;6464;42.494;27.470;2024-03-25T07:53:01;0.40;;;0.40;;
12800;SDS011;6464;42.494;27.470;2024-03-25T07:58:18;0.40;;;0.40;;
12800;SDS011;6464;42.494;27.470;2024-03-25T08:00:51;0.50;;;0.50;;
12800;SDS011;6464;42.494;27.470;2024-03-25T08:03:21;0.40;;;0.40;;
12800;SDS011;6464;42.494;27.470;2024-03-25T08:06:03;0.60;;;0.60;;
12800;SDS011;6464;42.494;27.470;2024-03-25T08:08:32;0.50;;;0.50;;
12800;SDS011;6464;42.494;27.470;2024-03-25T08:10:59;1.60;;;1.60;;
12800;SDS011;6464;42.494;27.470;2024-03-25T08:13:25;1.53;;;1.53;;
12800;SDS011;6464;42.494;27.470;2024-03-25T08:15:59;2.57;;;2.57;;
12800;SDS011;6464;42.494;27.470;2024-03-25T08:18:29;4.60;;;4.50;;
12800;SDS011;6464;42.494;27.470;2024-03-25T08:21:04;4.03;;;3.93;;
12800;SDS011;6464;42.494;27.470;2024-03-25T08:44:36;2.23;;;2.23;;
12800;SDS011;6464;42.494;27.470;2024-03-25T08:47:03;3.77;;;3.67;;
12800;SDS011;6464;42.494;27.470;2024-03-25T08:49:31;3.40;;;3.40;;
12800;SDS011;6464;42.494;27.470;2024-03-25T08:51:58;3.37;;;3.37;;
12800;SDS011;6464;42.494;27.470;2024-03-25T08:54:24;2.30;;;2.30;;
12800;SDS011;6464;42.494;27.470;2024-03-25T08:56:51;3.50;;;3.50;;
12800;SDS011;6464;42.494;27.470;2024-03-25T08:59:17;5.00;;;4.90;;
12800;SDS011;6464;42.494;27.470;2024-03-25T09:04:30;6.30;;;6.10;;
12800;SDS011;6464;42.494;27.470;2024-03-25T09:06:56;6.57;;;6.37;;
12800;SDS011;6464;42.494;27.470;2024-03-25T09:09:22;6.40;;;6.20;;
12800;SDS011;6464;42.494;27.470;2024-03-25T09:12:06;6.27;;;6.07;;
12800;SDS011;6464;42.494;27.470;2024-03-25T09:14:33;6.30;;;6.10;;
12800;SDS011;6464;42.494;27.470;2024-03-25T09:17:04;5.90;;;5.80;;
12800;SDS011;6464;42.494;27.470;2024-03-25T09:19:33;6.00;;;5.90;;
12800;SDS011;6464;42.494;27.470;2024-03-25T09:22:02;5.70;;;5.60;;
12800;SDS011;6464;42.494;27.470;2024-03-25T09:24:30;5.80;;;5.70;;
12800;SDS011;6464;42.494;27.470;2024-03-25T09:26:59;5.50;;;5.40;;
12800;SDS011;6464;42.494;27.470;2024-03-25T09:29:26;5.90;;;5.80;;
12800;SDS011;6464;42.494;27.470;2024-03-25T09:31:53;6.00;;;5.90;;
12800;SDS011;6464;42.494;27.470;2024-03-25T09:34:20;6.00;;;5.90;;
12800;SDS011;6464;42.494;27.470;2024-03-25T09:36:51;5.63;;;5.53;;
12800;SDS011;6464;42.494;27.470;2024-03-25T09:39:24;5.80;;;5.70;;
12800;SDS011;6464;42.494;27.470;2024-03-25T09:41:50;6.00;;;5.90;;
12800;SDS011;6464;42.494;27.470;2024-03-25T09:44:19;6.57;;;6.37;;
12800;SDS011;6464;42.494;27.470;2024-03-25T09:46:47;6.13;;;5.97;;
12800;SDS011;6464;42.494;27.470;2024-03-25T09:49:14;6.50;;;6.30;;
12800;SDS011;6464;42.494;27.470;2024-03-25T09:51:41;6.40;;;6.20;;
12800;SDS011;6464;42.494;27.470;2024-03-25T09:54:08;6.90;;;6.70;;
12800;SDS011;6464;42.494;27.470;2024-03-25T09:56:35;6.60;;;6.40;;
12800;SDS011;6464;42.494;27.470;2024-03-25T09:59:08;6.60;;;6.40;;
12800;SDS011;6464;42.494;27.470;2024-03-25T10:38:15;6.80;;;6.60;;
12800;SDS011;6464;42.494;27.470;2024-03-25T11:16:42;6.53;;;6.33;;
12800;SDS011;6464;42.494;27.470;2024-03-25T11:19:11;6.60;;;6.40;;
12800;SDS011;6464;42.494;27.470;2024-03-25T11:21:40;6.40;;;6.20;;
12800;SDS011;6464;42.494;27.470;2024-03-25T11:24:06;6.93;;;6.73;;
12800;SDS011;6464;42.494;27.470;2024-03-25T11:34:32;6.45;;;6.25;;
12800;SDS011;6464;42.494;27.470;2024-03-25T11:37:03;6.87;;;6.67;;
12800;SDS011;6464;42.494;27.470;2024-03-25T11:39:37;6.40;;;6.20;;
12800;SDS011;6464;42.494;27.470;2024-03-25T11:44:54;6.78;;;6.57;;
12800;SDS011;6464;42.494;27.470;2024-03-25T11:47:24;7.20;;;7.00;;
12800;SDS011;6464;42.494;27.470;2024-03-25T11:50:00;7.32;;;7.13;;
12800;SDS011;6464;42.494;27.470;2024-03-25T11:52:33;6.90;;;6.70;;
12800;SDS011;6464;42.494;27.470;2024-03-25T11:55:03;8.50;;;8.20;;
12800;SDS011;6464;42.494;27.470;2024-03-25T11:57:38;7.00;;;6.80;;
12800;SDS011;6464;42.494;27.470;2024-03-25T12:00:09;7.30;;;7.10;;
12800;SDS011;6464;42.494;27.470;2024-03-25T12:02:36;6.82;;;6.63;;
12800;SDS011;6464;42.494;27.470;2024-03-25T12:08:01;7.55;;;7.35;;
12800;SDS011;6464;42.494;27.470;2024-03-25T12:13:02;7.80;;;7.60;;
12800;SDS011;6464;42.494;27.470;2024-03-25T12:15:32;7.80;;;7.60;;
12800;SDS011;6464;42.494;27.470;2024-03-25T12:18:18;7.80;;;7.60;;
12800;SDS011;6464;42.494;27.470;2024-03-25T12:20:44;8.13;;;7.93;;
12800;SDS011;6464;42.494;27.470;2024-03-25T12:23:12;8.00;;;7.80;;
12800;SDS011;6464;42.494;27.470;2024-03-25T12:25:37;7.90;;;7.70;;
12800;SDS011;6464;42.494;27.470;2024-03-25T12:28:10;7.70;;;7.50;;
12800;SDS011;6464;42.494;27.470;2024-03-25T12:30:48;9.88;;;9.57;;
12800;SDS011;6464;42.494;27.470;2024-03-25T12:33:23;9.10;;;8.80;;
12800;SDS011;6464;42.494;27.470;2024-03-25T12:35:52;8.35;;;8.07;;
12800;SDS011;6464;42.494;27.470;2024-03-25T12:38:33;8.50;;;8.20;;
12800;SDS011;6464;42.494;27.470;2024-03-25T12:41:03;8.20;;;8.00;;
12800;SDS011;6464;42.494;27.470;2024-03-25T12:43:34;8.10;;;7.90;;
12800;SDS011;6464;42.494;27.470;2024-03-25T12:46:18;8.77;;;8.48;;
12800;SDS011;6464;42.494;27.470;2024-03-25T12:48:52;8.63;;;8.32;;
12800;SDS011;6464;42.494;27.470;2024-03-25T12:51:18;8.25;;;8.05;;
12800;SDS011;6464;42.494;27.470;2024-03-25T12:53:59;8.20;;;8.00;;
12800;SDS011;6464;42.494;27.470;2024-03-25T12:56:31;7.90;;;7.70;;
12800;SDS011;6464;42.494;27.470;2024-03-25T12:58:58;8.05;;;7.85;;
12800;SDS011;6464;42.494;27.470;2024-03-25T13:01:39;8.10;;;7.90;;
12800;SDS011;6464;42.494;27.470;2024-03-25T13:04:06;7.68;;;7.47;;
12800;SDS011;6464;42.494;27.470;2024-03-25T13:06:34;7.78;;;7.57;;
12800;SDS011;6464;42.494;27.470;2024-03-25T13:09:03;10.32;;;9.93;;
12800;SDS011;6464;42.494;27.470;2024-03-25T13:11:29;9.80;;;9.50;;
12800;SDS011;6464;42.494;27.470;2024-03-25T13:13:58;9.85;;;9.55;;
12800;SDS011;6464;42.494;27.470;2024-03-25T13:16:25;9.70;;;9.40;;
12800;SDS011;6464;42.494;27.470;2024-03-25T13:18:52;9.93;;;9.63;;
12800;SDS011;6464;42.494;27.470;2024-03-25T13:21:25;9.70;;;9.40;;
12800;SDS011;6464;42.494;27.470;2024-03-25T13:24:04;9.43;;;9.13;;
12800;SDS011;6464;42.494;27.470;2024-03-25T13:26:33;7.68;;;7.47;;
12800;SDS011;6464;42.494;27.470;2024-03-25T13:29:08;9.95;;;9.65;;
12800;SDS011;6464;42.494;27.470;2024-03-25T13:31:34;9.82;;;9.52;;
12800;SDS011;6464;42.494;27.470;2024-03-25T13:34:01;9.75;;;9.45;;
12800;SDS011;6464;42.494;27.470;2024-03-25T13:36:28;9.40;;;9.10;;
12800;SDS011;6464;42.494;27.470;2024-03-25T13:38:55;9.85;;;9.55;;
12800;SDS011;6464;42.494;27.470;2024-03-25T13:41:21;9.68;;;9.38;;
12800;SDS011;6464;42.494;27.470;2024-03-25T13:43:48;9.20;;;8.90;;
12800;SDS011;6464;42.494;27.470;2024-03-25T13:46:16;9.90;;;9.60;;
12800;SDS011;6464;42.494;27.470;2024-03-25T13:48:48;8.00;;;7.80;;
12800;SDS011;6464;42.494;27.470;2024-03-25T13:51:14;9.10;;;8.80;;
12800;SDS011;6464;42.494;27.470;2024-03-25T13:53:42;8.80;;;8.50;;
12800;SDS011;6464;42.494;27.470;2024-03-25T13:56:09;7.95;;;7.75;;
12800;SDS011;6464;42.494;27.470;2024-03-25T13:58:36;7.65;;;7.45;;
12800;SDS011;6464;42.494;27.470;2024-03-25T14:01:08;8.00;;;7.80;;
12800;SDS011;6464;42.494;27.470;2024-03-25T14:03:48;7.80;;;7.60;;
12800;SDS011;6464;42.494;27.470;2024-03-25T14:06:31;7.95;;;7.75;;
12800;SDS011;6464;42.494;27.470;2024-03-25T14:09:00;7.90;;;7.70;;
12800;SDS011;6464;42.494;27.470;2024-03-25T14:14:11;7.80;;;7.60;;
12800;SDS011;6464;42.494;27.470;2024-03-25T14:16:38;7.90;;;7.70;;
12800;SDS011;6464;42.494;27.470;2024-03-25T14:19:04;8.60;;;8.30;;
12800;SDS011;6464;42.494;27.470;2024-03-25T14:21:31;8.10;;;7.90;;
12800;SDS011;6464;42.494;27.470;2024-03-25T14:23:57;8.00;;;7.80;;
12800;SDS011;6464;42.494;27.470;2024-03-25T14:26:23;7.90;;;7.70;;
12800;SDS011;6464;42.494;27.470;2024-03-25T14:28:52;7.80;;;7.60;;
12800;SDS011;6464;42.494;27.470;2024-03-25T14:31:21;9.43;;;9.13;;
12800;SDS011;6464;42.494;27.470;2024-03-25T14:36:45;8.18;;;7.97;;
12800;SDS011;6464;42.494;27.470;2024-03-25T14:39:11;7.60;;;7.40;;
12800;SDS011;6464;42.494;27.470;2024-03-25T14:41:39;7.90;;;7.70;;
12800;SDS011;6464;42.494;27.470;2024-03-25T14:44:07;7.90;;;7.70;;
12800;SDS011;6464;42.494;27.470;2024-03-25T14:46:46;7.85;;;7.65;;
12800;SDS011;6464;42.494;27.470;2024-03-25T14:49:12;7.63;;;7.43;;
12800;SDS011;6464;42.494;27.470;2024-03-25T14:51:40;7.60;;;7.40;;
12800;SDS011;6464;42.494;27.470;2024-03-25T14:57:10;8.10;;;7.90;;
12800;SDS011;6464;42.494;27.470;2024-03-25T14:59:38;7.50;;;7.30;;
12800;SDS011;6464;42.494;27.470;2024-03-25T15:02:16;7.90;;;7.70;;
12800;SDS011;6464;42.494;27.470;2024-03-25T15:10:04;7.97;;;7.78;;
12800;SDS011;6464;42.494;27.470;2024-03-25T15:12:47;7.70;;;7.50;;
12800;SDS011;6464;42.494;27.470;2024-03-25T15:15:13;7.75;;;7.55;;
12800;SDS011;6464;42.494;27.470;2024-03-25T15:17:40;8.10;;;7.90;;
12800;SDS011;6464;42.494;27.470;2024-03-25T15:20:12;7.82;;;7.63;;
12800;SDS011;6464;42.494;27.470;2024-03-25T15:25:24;7.93;;;7.73;;
12800;SDS011;6464;42.494;27.470;2024-03-25T15:28:19;7.70;;;7.50;;
12800;SDS011;6464;42.494;27.470;2024-03-25T15:31:04;7.50;;;7.30;;
12800;SDS011;6464;42.494;27.470;2024-03-25T15:47:20;9.70;;;9.40;;
12800;SDS011;6464;42.494;27.470;2024-03-25T16:49:09;6.50;;;6.30;;
12800;SDS011;6464;42.494;27.470;2024-03-25T16:51:49;6.50;;;6.30;;
12800;SDS011;6464;42.494;27.470;2024-03-25T16:54:45;6.07;;;5.97;;
12800;SDS011;6464;42.494;27.470;2024-03-25T16:57:21;6.23;;;6.10;;
12800;SDS011;6464;42.494;27.470;2024-03-25T17:05:16;6.00;;;5.90;;
12800;SDS011;6464;42.494;27.470;2024-03-25T17:07:44;6.60;;;6.40;;
12800;SDS011;6464;42.494;27.470;2024-03-25T17:10:18;5.90;;;5.80;;
12800;SDS011;6464;42.494;27.470;2024-03-25T17:13:00;6.07;;;5.97;;
12800;SDS011;6464;42.494;27.470;2024-03-25T18:06:53;5.37;;;5.27;;
12800;SDS011;6464;42.494;27.470;2024-03-25T18:09:22;5.80;;;5.70;;
12800;SDS011;6464;42.494;27.470;2024-03-25T18:11:52;5.93;;;5.83;;
12800;SDS011;6464;42.494;27.470;2024-03-25T18:14:19;5.23;;;5.13;;
12800;SDS011;6464;42.494;27.470;2024-03-25T18:16:46;5.87;;;5.77;;
12800;SDS011;6464;42.494;27.470;2024-03-25T18:19:19;5.80;;;5.70;;
12800;SDS011;6464;42.494;27.470;2024-03-25T19:02:52;5.40;;;5.30;;
12800;SDS011;6464;42.494;27.470;2024-03-25T19:05:24;5.40;;;5.30;;
12800;SDS011;6464;42.494;27.470;2024-03-25T19:08:03;5.40;;;5.30;;
12800;SDS011;6464;42.494;27.470;2024-03-25T19:10:42;4.60;;;4.50;;
12800;SDS011;6464;42.494;27.470;2024-03-25T19:13:16;5.17;;;5.07;;
12800;SDS011;6464;42.494;27.470;2024-03-25T19:31:42;5.60;;;5.50;;
12800;SDS011;6464;42.494;27.470;2024-03-25T19:34:15;5.20;;;5.10;;
12800;SDS011;6464;42.494;27.470;2024-03-25T19:36:41;5.13;;;5.03;;
12800;SDS011;6464;42.494;27.470;2024-03-25T19:39:26;4.67;;;4.57;;
12800;SDS011;6464;42.494;27.470;2024-03-25T20:39:37;5.30;;;5.20;;
12800;SDS011;6464;42.494;27.470;2024-03-25T20:42:04;5.40;;;5.30;;
12800;SDS011;6464;42.494;27.470;2024-03-25T20:44:37;5.80;;;5.70;;
12800;SDS011;6464;42.494;27.470;2024-03-25T20:47:04;5.77;;;5.67;;
12800;SDS011;6464;42.494;27.470;2024-03-25T20:49:31;5.80;;;5.70;;
12800;SDS011;6464;42.494;27.470;2024-03-25T20:52:01;6.37;;;6.17;;
12800;SDS011;6464;42.494;27.470;2024-03-25T20:54:32;5.90;;;5.80;;
12800;SDS011;6464;42.494;27.470;2024-03-25T20:57:06;5.90;;;5.80;;
12800;SDS011;6464;42.494;27.470;2024-03-25T21:30:13;6.93;;;6.73;;
12800;SDS011;6464;42.494;27.470;2024-03-25T22:45:43;7.00;;;6.80;;
12800;SDS011;6464;42.494;27.470;2024-03-25T23:33:54;7.67;;;7.47;;
12800;SDS011;6464;42.494;27.470;2024-03-25T23:36:26;7.20;;;7.00;;
12800;SDS011;6464;42.494;27.470;2024-03-25T23:39:03;7.90;;;7.70;;
